createdAt,value
2018-12-25T00:01:40.482Z,3.96
2018-12-25T00:04:09.231Z,3.99
2018-12-25T00:06:37.843Z,3.94
2018-12-25T00:09:46.425Z,3.93
2018-12-25T00:12:15.058Z,3.94
2018-12-25T00:14:43.719Z,3.94
2018-12-25T00:17:12.346Z,3.94
2018-12-25T00:19:41.277Z,4.00
2018-12-25T00:22:09.919Z,4.00
2018-12-25T00:24:38.518Z,4.06
2018-12-25T00:27:07.281Z,4.00
2018-12-25T00:29:35.866Z,4.01
2018-12-25T00:32:04.547Z,4.04
2018-12-25T00:34:33.069Z,4.05
2018-12-25T00:37:01.895Z,4.13
2018-12-25T00:39:30.578Z,4.10
2018-12-25T00:41:59.222Z,4.14
2018-12-25T00:44:27.982Z,4.17
2018-12-25T00:46:56.690Z,4.16
2018-12-25T00:49:25.340Z,4.16
2018-12-25T00:51:53.922Z,4.14
2018-12-25T00:54:22.487Z,4.19
2018-12-25T00:56:51.078Z,4.19
2018-12-25T00:59:19.842Z,4.18
2018-12-25T01:01:48.854Z,4.20
2018-12-25T01:04:17.452Z,4.15
2018-12-25T01:06:46.027Z,4.16
2018-12-25T01:09:14.752Z,4.19
2018-12-25T01:11:43.427Z,4.18
2018-12-25T01:14:12.074Z,4.19
2018-12-25T01:16:40.645Z,4.25
2018-12-25T01:19:09.272Z,4.17
2018-12-25T01:21:37.996Z,4.17
2018-12-25T01:24:06.612Z,4.16
2018-12-25T01:26:35.309Z,4.13
2018-12-25T01:29:03.879Z,4.19
2018-12-25T01:31:32.632Z,4.12
2018-12-25T01:34:01.195Z,4.21
2018-12-25T01:36:29.833Z,4.12
2018-12-25T01:38:58.465Z,4.13
2018-12-25T01:41:27.189Z,4.16
2018-12-25T01:43:55.758Z,4.18
2018-12-25T01:46:24.507Z,4.13
2018-12-25T01:48:53.215Z,4.12
2018-12-25T01:51:21.852Z,4.18
2018-12-25T01:53:50.432Z,4.23
2018-12-25T01:56:19.010Z,4.24
2018-12-25T01:58:47.943Z,4.19
2018-12-25T02:01:16.761Z,4.18
2018-12-25T02:03:45.734Z,4.28
2018-12-25T02:06:14.436Z,4.31
2018-12-25T02:08:43.096Z,4.26
2018-12-25T02:11:11.569Z,4.28
2018-12-25T02:13:40.156Z,4.35
2018-12-25T02:16:08.743Z,4.28
2018-12-25T02:18:37.417Z,4.28
2018-12-25T02:21:06.439Z,4.26
2018-12-25T02:23:35.105Z,4.36
2018-12-25T02:26:43.662Z,4.37
2018-12-25T02:29:12.334Z,4.41
2018-12-25T02:31:41.336Z,4.37
2018-12-25T02:34:09.959Z,4.34
2018-12-25T02:36:38.554Z,4.36
2018-12-25T02:39:26.461Z,4.32
2018-12-25T02:41:55.134Z,4.36
2018-12-25T02:44:24.322Z,4.35
2018-12-25T02:46:53.119Z,4.45
2018-12-25T02:49:21.715Z,4.43
2018-12-25T02:51:50.694Z,4.32
2018-12-25T02:54:19.385Z,4.30
2018-12-25T02:56:48.110Z,4.39
2018-12-25T02:59:16.723Z,4.32
2018-12-25T03:01:45.865Z,4.33
2018-12-25T03:04:14.427Z,4.41
2018-12-25T03:06:43.086Z,4.37
2018-12-25T03:09:11.695Z,4.45
2018-12-25T03:11:40.318Z,4.46
2018-12-25T03:14:09.015Z,4.35
2018-12-25T03:16:38.531Z,4.37
2018-12-25T03:19:07.094Z,4.40
2018-12-25T03:21:35.732Z,4.37
2018-12-25T03:24:04.316Z,4.42
2018-12-25T03:26:33.239Z,4.40
2018-12-25T03:29:01.897Z,4.39
2018-12-25T03:31:30.537Z,4.47
2018-12-25T03:33:59.186Z,4.36
2018-12-25T03:36:27.704Z,4.34
2018-12-25T03:38:56.460Z,4.36
2018-12-25T03:41:25.123Z,4.38
2018-12-25T03:43:53.782Z,4.43
2018-12-25T03:46:22.380Z,4.43
2018-12-25T03:48:51.064Z,4.56
2018-12-25T03:51:19.751Z,4.55
2018-12-25T03:53:48.496Z,4.46
2018-12-25T03:56:17.126Z,4.33
2018-12-25T03:58:45.696Z,4.33
2018-12-25T04:01:14.449Z,4.36
2018-12-25T04:03:43.038Z,4.46
2018-12-25T04:06:11.701Z,4.41
2018-12-25T04:08:40.351Z,4.45
2018-12-25T04:11:09.007Z,4.37
2018-12-25T04:13:37.569Z,4.34
2018-12-25T04:16:06.246Z,4.39
2018-12-25T04:18:35.368Z,4.33
2018-12-25T04:21:04.025Z,4.35
2018-12-25T04:23:32.622Z,4.32
2018-12-25T04:26:01.200Z,4.34
2018-12-25T04:28:29.774Z,4.32
2018-12-25T04:30:58.385Z,4.31
2018-12-25T04:33:27.009Z,4.38
2018-12-25T04:35:55.596Z,4.38
2018-12-25T04:38:24.244Z,4.44
2018-12-25T04:40:52.956Z,4.45
2018-12-25T04:43:21.485Z,4.41
2018-12-25T04:45:50.041Z,4.38
2018-12-25T04:48:18.601Z,4.43
2018-12-25T04:50:47.292Z,4.40
2018-12-25T04:53:15.995Z,4.40
2018-12-25T04:55:44.738Z,4.39
2018-12-25T04:58:13.296Z,4.38
2018-12-25T05:00:41.972Z,4.39
2018-12-25T05:03:10.502Z,4.35
2018-12-25T05:05:39.491Z,4.28
2018-12-25T05:08:08.057Z,4.25
2018-12-25T05:10:36.694Z,4.24
2018-12-25T05:13:05.228Z,4.21
2018-12-25T05:15:33.938Z,4.21
2018-12-25T05:18:02.400Z,4.17
2018-12-25T05:20:37.804Z,4.12
2018-12-25T05:23:01.468Z,4.15
2018-12-25T05:25:29.997Z,4.14
2018-12-25T05:27:58.608Z,4.10
2018-12-25T05:30:27.178Z,4.06
2018-12-25T05:32:55.855Z,4.11
2018-12-25T05:35:24.761Z,4.03
2018-12-25T05:37:53.282Z,4.05
2018-12-25T05:40:21.940Z,4.06
2018-12-25T05:42:50.521Z,4.01
2018-12-25T05:45:19.102Z,4.09
2018-12-25T05:47:47.725Z,4.07
2018-12-25T05:50:16.413Z,4.02
2018-12-25T05:52:45.059Z,4.09
2018-12-25T05:55:13.676Z,4.09
2018-12-25T05:57:42.380Z,4.09
2018-12-25T06:00:11.098Z,4.06
2018-12-25T06:02:39.727Z,4.05
2018-12-25T06:05:08.570Z,4.09
2018-12-25T06:07:37.133Z,4.07
2018-12-25T06:10:05.808Z,4.10
2018-12-25T06:12:34.399Z,4.18
2018-12-25T06:15:03.016Z,4.14
2018-12-25T06:17:31.670Z,4.20
2018-12-25T06:20:00.272Z,4.21
2018-12-25T06:22:29.198Z,4.25
2018-12-25T06:24:57.758Z,4.27
2018-12-25T06:27:26.468Z,4.26
2018-12-25T06:29:55.170Z,4.30
2018-12-25T06:32:23.766Z,4.35
2018-12-25T06:34:52.405Z,4.35
2018-12-25T06:37:21.337Z,4.31
2018-12-25T06:39:50.064Z,4.22
2018-12-25T06:42:18.544Z,4.19
2018-12-25T06:45:06.538Z,4.25
2018-12-25T06:47:35.331Z,4.32
2018-12-25T06:50:03.956Z,4.27
2018-12-25T06:52:32.561Z,4.25
2018-12-25T06:55:01.279Z,4.37
2018-12-25T06:57:30.273Z,4.37
2018-12-25T06:59:59.036Z,4.41
2018-12-25T07:02:27.807Z,4.42
2018-12-25T07:04:56.478Z,4.48
2018-12-25T07:07:25.089Z,4.38
2018-12-25T07:09:53.703Z,4.38
2018-12-25T07:12:22.360Z,4.41
2018-12-25T07:14:50.920Z,4.49
2018-12-25T07:17:19.655Z,4.45
2018-12-25T07:19:48.251Z,4.51
2018-12-25T07:22:16.770Z,4.50
2018-12-25T07:24:45.314Z,4.49
2018-12-25T07:27:14.100Z,4.50
2018-12-25T07:29:42.785Z,4.45
2018-12-25T07:32:11.395Z,4.37
2018-12-25T07:34:39.925Z,4.37
2018-12-25T07:37:08.449Z,4.35
2018-12-25T07:39:37.055Z,4.37
2018-12-25T07:42:05.663Z,4.37
2018-12-25T07:44:34.317Z,4.39
2018-12-25T07:47:02.976Z,4.41
2018-12-25T07:49:31.549Z,4.37
2018-12-25T07:52:00.148Z,4.29
2018-12-25T07:54:28.838Z,4.27
2018-12-25T07:56:57.475Z,4.29
2018-12-25T07:59:26.168Z,4.31
2018-12-25T08:01:54.798Z,4.31
2018-12-25T08:04:23.430Z,4.43
2018-12-25T08:06:52.144Z,4.40
2018-12-25T08:09:20.732Z,4.44
2018-12-25T08:11:49.472Z,4.49
2018-12-25T08:14:18.418Z,4.47
2018-12-25T08:16:47.048Z,4.53
2018-12-25T08:19:15.780Z,4.53
2018-12-25T08:21:44.425Z,4.53
2018-12-25T08:24:12.940Z,4.50
2018-12-25T08:26:41.601Z,4.61
2018-12-25T08:29:10.202Z,4.65
2018-12-25T08:31:39.167Z,4.73
2018-12-25T08:34:07.798Z,4.70
2018-12-25T08:36:36.620Z,4.75
2018-12-25T08:39:45.164Z,4.69
2018-12-25T08:42:13.633Z,4.63
2018-12-25T08:44:42.305Z,4.78
2018-12-25T08:47:11.662Z,4.65
2018-12-25T08:49:41.278Z,4.75
2018-12-25T08:52:09.900Z,4.83
2018-12-25T08:54:38.615Z,4.80
2018-12-25T08:57:07.307Z,4.72
2018-12-25T08:59:35.988Z,4.84
2018-12-25T09:02:04.636Z,4.85
2018-12-25T09:04:33.178Z,4.95
2018-12-25T09:07:01.800Z,4.95
2018-12-25T09:09:30.515Z,4.95
2018-12-25T09:11:59.144Z,4.95
2018-12-25T09:14:27.749Z,4.94
2018-12-25T09:16:56.376Z,4.92
2018-12-25T09:19:25.054Z,4.94
2018-12-25T09:21:53.641Z,5.02
2018-12-25T09:24:22.258Z,5.11
2018-12-25T09:26:50.916Z,5.20
2018-12-25T09:29:19.566Z,5.22
2018-12-25T09:31:48.222Z,5.19
2018-12-25T09:34:16.911Z,5.22
2018-12-25T09:36:45.394Z,5.30
2018-12-25T09:39:14.130Z,5.16
2018-12-25T09:41:42.687Z,5.29
2018-12-25T09:44:11.228Z,5.32
2018-12-25T09:46:39.950Z,5.36
2018-12-25T09:49:27.862Z,5.35
2018-12-25T09:51:56.491Z,5.51
2018-12-25T09:54:25.102Z,5.59
2018-12-25T09:56:53.894Z,5.37
2018-12-25T09:59:22.478Z,5.47
2018-12-25T10:01:51.048Z,5.35
2018-12-25T10:04:19.594Z,5.41
2018-12-25T10:06:48.383Z,5.55
2018-12-25T10:09:17.098Z,5.58
2018-12-25T10:11:45.695Z,5.53
2018-12-25T10:14:14.465Z,5.66
2018-12-25T10:16:43.061Z,5.71
2018-12-25T10:19:11.697Z,5.70
2018-12-25T10:21:40.226Z,5.69
2018-12-25T10:24:08.895Z,5.67
2018-12-25T10:26:37.447Z,5.72
2018-12-25T10:29:06.120Z,5.78
2018-12-25T10:31:34.619Z,5.82
2018-12-25T10:34:03.302Z,5.69
2018-12-25T10:36:31.839Z,5.74
2018-12-25T10:39:00.514Z,5.77
2018-12-25T10:41:29.155Z,5.81
2018-12-25T10:43:57.960Z,5.85
2018-12-25T10:46:26.605Z,5.76
2018-12-25T10:48:55.205Z,5.79
2018-12-25T10:51:24.342Z,5.86
2018-12-25T10:53:52.979Z,5.97
2018-12-25T10:56:21.570Z,5.95
2018-12-25T10:58:50.137Z,6.07
2018-12-25T11:01:18.623Z,6.04
2018-12-25T11:03:47.283Z,6.00
2018-12-25T11:06:16.029Z,6.06
2018-12-25T11:08:45.705Z,6.04
2018-12-25T11:11:14.420Z,6.01
2018-12-25T11:13:43.659Z,6.11
2018-12-25T11:16:12.161Z,6.20
2018-12-25T11:18:48.911Z,6.08
2018-12-25T11:21:21.513Z,6.12
2018-12-25T11:23:50.145Z,6.23
2018-12-25T11:26:18.760Z,6.18
2018-12-25T11:28:47.374Z,6.15
2018-12-25T11:31:15.939Z,6.14
2018-12-25T11:33:45.013Z,6.06
2018-12-25T11:36:13.667Z,6.08
2018-12-25T11:38:42.341Z,6.11
2018-12-25T11:41:10.964Z,6.09
2018-12-25T11:43:39.642Z,6.07
2018-12-25T11:46:08.418Z,6.09
2018-12-25T11:48:36.961Z,6.05
2018-12-25T11:51:05.710Z,5.98
2018-12-25T11:53:34.352Z,6.03
2018-12-25T11:56:03.072Z,5.98
2018-12-25T11:58:31.670Z,6.02
2018-12-25T12:01:00.364Z,6.12
2018-12-25T12:03:28.936Z,6.05
2018-12-25T12:05:57.606Z,6.03
2018-12-25T12:08:26.240Z,6.02
2018-12-25T12:10:54.928Z,6.05
2018-12-25T12:13:23.542Z,6.12
2018-12-25T12:15:52.232Z,6.10
2018-12-25T12:18:20.800Z,6.21
2018-12-25T12:20:49.555Z,6.28
2018-12-25T12:23:18.272Z,6.31
2018-12-25T12:25:46.739Z,6.32
2018-12-25T12:28:15.822Z,6.33
2018-12-25T12:30:44.711Z,6.27
2018-12-25T12:33:15.472Z,6.22
2018-12-25T12:35:43.832Z,6.16
2018-12-25T12:38:12.548Z,6.22
2018-12-25T12:40:42.733Z,6.25
2018-12-25T12:43:11.396Z,6.34
2018-12-25T12:45:40.070Z,6.30
2018-12-25T12:48:08.844Z,6.24
2018-12-25T12:50:37.489Z,6.28
2018-12-25T12:53:06.145Z,6.29
2018-12-25T12:55:34.747Z,6.24
2018-12-25T12:58:03.470Z,6.31
2018-12-25T13:00:32.043Z,6.26
2018-12-25T13:03:01.137Z,6.16
2018-12-25T13:05:29.839Z,6.11
2018-12-25T13:07:58.499Z,6.05
2018-12-25T13:10:27.084Z,6.13
2018-12-25T13:12:56.079Z,6.12
2018-12-25T13:15:24.800Z,6.02
2018-12-25T13:17:53.511Z,6.02
2018-12-25T13:20:22.204Z,5.98
2018-12-25T13:22:54.265Z,5.96
2018-12-25T13:25:21.298Z,6.07
2018-12-25T13:27:49.941Z,5.95
2018-12-25T13:30:18.599Z,5.87
2018-12-25T13:33:06.333Z,5.93
2018-12-25T13:35:35.015Z,5.94
2018-12-25T13:38:03.939Z,5.92
2018-12-25T13:40:32.566Z,5.95
2018-12-25T13:43:01.130Z,5.96
2018-12-25T13:45:30.211Z,5.96
2018-12-25T13:47:58.873Z,6.01
2018-12-25T13:50:27.481Z,5.97
2018-12-25T13:53:02.783Z,6.04
2018-12-25T13:55:26.726Z,6.02
2018-12-25T13:57:55.336Z,5.96
2018-12-25T14:00:23.970Z,6.07
2018-12-25T14:02:52.659Z,6.03
2018-12-25T14:05:40.862Z,5.99
2018-12-25T14:08:09.431Z,5.95
2018-12-25T14:10:37.981Z,5.91
2018-12-25T14:13:07.208Z,5.91
2018-12-25T14:15:35.986Z,5.87
2018-12-25T14:18:04.648Z,5.83
2018-12-25T14:20:33.567Z,5.86
2018-12-25T14:23:02.397Z,5.80
2018-12-25T14:25:31.103Z,5.79
2018-12-25T14:27:59.879Z,5.79
2018-12-25T14:30:28.400Z,5.85
2018-12-25T14:32:57.079Z,5.70
2018-12-25T14:35:25.745Z,5.76
2018-12-25T14:37:54.396Z,5.70
2018-12-25T14:40:23.147Z,5.67
2018-12-25T14:42:51.911Z,5.64
2018-12-25T14:45:20.554Z,5.63
2018-12-25T14:50:39.066Z,5.72
2018-12-25T14:53:07.740Z,5.80
2018-12-25T14:55:55.938Z,5.87
2018-12-25T14:58:43.707Z,5.76
2018-12-25T15:01:12.547Z,5.76
2018-12-25T15:03:41.305Z,5.72
2018-12-25T15:06:10.114Z,5.76
2018-12-25T15:08:38.771Z,5.69
2018-12-25T15:11:07.476Z,5.78
2018-12-25T15:13:36.137Z,5.74
2018-12-25T15:16:04.818Z,5.76
2018-12-25T15:18:33.710Z,5.75
2018-12-25T15:21:02.590Z,5.69
2018-12-25T15:23:31.397Z,5.68
2018-12-25T15:25:59.971Z,5.68
2018-12-25T15:28:28.657Z,5.69
2018-12-25T15:30:57.257Z,5.67
2018-12-25T15:33:26.011Z,5.78
2018-12-25T15:35:54.612Z,5.67
2018-12-25T15:38:23.356Z,5.69
2018-12-25T15:40:52.292Z,5.66
2018-12-25T15:43:21.075Z,5.63
2018-12-25T15:45:49.598Z,5.62
2018-12-25T15:48:18.333Z,5.59
2018-12-25T15:53:36.993Z,5.61
2018-12-25T15:56:19.202Z,5.67
2018-12-25T15:58:37.545Z,5.78
2018-12-25T16:01:06.233Z,5.78
2018-12-25T16:03:34.860Z,5.72
2018-12-25T16:06:03.474Z,5.71
2018-12-25T16:08:32.164Z,5.71
2018-12-25T16:11:00.808Z,5.66
2018-12-25T16:13:29.676Z,5.65
2018-12-25T16:15:58.506Z,5.75
2018-12-25T16:18:27.176Z,5.75
2018-12-25T16:20:55.900Z,5.74
2018-12-25T16:23:24.487Z,5.68
2018-12-25T16:25:53.252Z,5.69
2018-12-25T16:28:21.874Z,5.75
2018-12-25T16:30:50.467Z,5.81
2018-12-25T16:33:19.133Z,5.82
2018-12-25T16:35:47.772Z,5.74
2018-12-25T16:38:16.488Z,5.85
2018-12-25T16:40:45.133Z,5.74
2018-12-25T16:43:13.807Z,5.82
2018-12-25T16:45:42.395Z,5.77
2018-12-25T16:48:11.014Z,5.81
2018-12-25T16:50:40.263Z,5.79
2018-12-25T16:53:10.293Z,5.71
2018-12-25T16:55:38.896Z,5.68
2018-12-25T16:58:07.507Z,5.70
2018-12-25T17:00:36.270Z,5.70
2018-12-25T17:03:04.945Z,5.67
2018-12-25T17:05:33.541Z,5.68
2018-12-25T17:08:02.163Z,5.73
2018-12-25T17:10:30.765Z,5.75
2018-12-25T17:12:59.790Z,5.79
2018-12-25T17:15:28.579Z,5.71
2018-12-25T17:17:57.133Z,5.63
2018-12-25T17:20:25.665Z,5.67
2018-12-25T17:22:54.313Z,5.74
2018-12-25T17:25:23.035Z,5.70
2018-12-25T17:27:51.658Z,5.63
2018-12-25T17:31:00.277Z,5.63
2018-12-25T17:33:28.938Z,5.66
2018-12-25T17:35:57.744Z,5.71
2018-12-25T17:38:26.381Z,5.71
2018-12-25T17:40:55.007Z,5.86
2018-12-25T17:43:23.546Z,5.80
2018-12-25T17:45:52.115Z,5.78
2018-12-25T17:48:20.786Z,5.82
2018-12-25T17:50:50.035Z,5.80
2018-12-25T17:53:18.781Z,5.77
2018-12-25T17:55:47.362Z,5.80
2018-12-25T17:58:16.010Z,5.81
2018-12-25T18:00:44.659Z,5.83
2018-12-25T18:03:13.226Z,5.82
2018-12-25T18:05:41.981Z,5.81
2018-12-25T18:08:10.581Z,5.72
2018-12-25T18:10:39.221Z,5.75
2018-12-25T18:13:07.900Z,5.71
2018-12-25T18:15:36.930Z,5.69
2018-12-25T18:18:05.573Z,5.65
2018-12-25T18:20:34.258Z,5.67
2018-12-25T18:23:02.942Z,5.65
2018-12-25T18:25:31.660Z,5.61
2018-12-25T18:28:00.387Z,5.61
2018-12-25T18:30:29.239Z,5.65
2018-12-25T18:32:57.827Z,5.76
2018-12-25T18:35:26.335Z,5.78
2018-12-25T18:37:55.058Z,5.75
2018-12-25T18:40:23.764Z,5.73
2018-12-25T18:42:52.465Z,5.61
2018-12-25T18:45:21.478Z,5.56
2018-12-25T18:47:50.180Z,5.62
2018-12-25T18:50:18.963Z,5.66
2018-12-25T18:52:47.804Z,5.70
2018-12-25T18:55:16.523Z,5.72
2018-12-25T18:57:45.108Z,5.67
2018-12-25T19:00:13.726Z,5.66
2018-12-25T19:02:42.427Z,5.71
2018-12-25T19:05:11.087Z,5.80
2018-12-25T19:07:39.839Z,5.85
2018-12-25T19:10:48.479Z,5.72
2018-12-25T19:13:29.554Z,5.77
2018-12-25T19:15:48.262Z,5.63
2018-12-25T19:18:17.215Z,5.64
2018-12-25T19:20:45.827Z,5.63
2018-12-25T19:23:14.483Z,5.60
2018-12-25T19:25:43.152Z,5.58
2018-12-25T19:28:11.861Z,5.59
2018-12-25T19:33:15.999Z,5.56
2018-12-25T19:35:44.673Z,5.63
2018-12-25T19:38:13.594Z,5.61
2018-12-25T19:40:42.835Z,5.66
2018-12-25T19:43:12.214Z,5.71
2018-12-25T19:45:40.885Z,5.68
2018-12-25T19:48:09.553Z,5.66
2018-12-25T19:50:38.242Z,5.80
2018-12-25T19:53:06.967Z,5.70
2018-12-25T19:55:36.003Z,5.71
2018-12-25T20:00:39.826Z,5.86
2018-12-25T20:03:08.509Z,5.73
2018-12-25T20:06:17.163Z,5.81
2018-12-25T20:09:26.179Z,5.85
2018-12-25T20:12:33.699Z,5.77
2018-12-25T20:15:42.359Z,5.76
2018-12-25T20:18:51.232Z,5.72
2018-12-25T20:25:29.945Z,5.76
2018-12-25T20:31:28.153Z,5.71
2018-12-25T20:37:51.505Z,5.83
2018-12-25T20:41:01.819Z,5.75
2018-12-25T20:47:22.755Z,5.79
2018-12-25T20:50:30.034Z,5.76
2018-12-25T20:53:38.736Z,5.74
2018-12-25T20:56:47.012Z,5.68
2018-12-25T20:59:54.534Z,5.67
2018-12-25T21:03:03.164Z,5.57
2018-12-25T21:06:10.456Z,5.57
2018-12-25T21:09:00.136Z,5.54
2018-12-25T21:12:08.719Z,5.60
2018-12-25T21:15:17.641Z,5.58
2018-12-25T21:18:24.993Z,5.65
2018-12-25T21:21:32.323Z,5.68
2018-12-25T21:24:39.743Z,5.68
2018-12-25T21:27:47.020Z,5.72
2018-12-25T21:30:15.767Z,5.67
2018-12-25T21:32:44.399Z,5.71
2018-12-25T21:35:52.996Z,5.70
2018-12-25T21:38:21.809Z,5.69
2018-12-25T21:40:50.508Z,5.73
2018-12-25T21:43:19.806Z,5.78
2018-12-25T21:45:48.561Z,5.85
2018-12-25T21:48:57.166Z,5.85
2018-12-25T21:51:25.921Z,5.86
2018-12-25T21:53:54.660Z,5.87
2018-12-25T21:56:23.511Z,5.78
2018-12-25T21:58:52.161Z,5.84
2018-12-25T22:01:20.833Z,5.86
2018-12-25T22:06:25.376Z,5.92
2018-12-25T22:08:53.983Z,5.89
2018-12-25T22:11:22.630Z,5.81
2018-12-25T22:13:51.270Z,5.79
2018-12-25T22:16:20.015Z,5.77
2018-12-25T22:18:48.706Z,5.76
2018-12-25T22:21:17.396Z,5.71
2018-12-25T22:23:46.179Z,5.77
2018-12-25T22:26:14.923Z,5.73
2018-12-25T22:28:43.594Z,5.77
2018-12-25T22:31:12.336Z,5.80
2018-12-25T22:33:41.061Z,5.80
2018-12-25T22:36:09.761Z,5.85
2018-12-25T22:38:38.436Z,5.87
2018-12-25T22:41:06.985Z,5.84
2018-12-25T22:43:35.582Z,5.87
2018-12-25T22:46:04.224Z,5.90
2018-12-25T22:48:33.292Z,5.86
2018-12-25T22:51:01.983Z,5.85
2018-12-25T22:53:30.732Z,5.97
2018-12-25T22:55:59.330Z,5.91
2018-12-25T22:58:27.990Z,5.91
2018-12-25T23:00:56.656Z,5.89
2018-12-25T23:03:27.471Z,5.96
2018-12-25T23:05:55.676Z,5.93
2018-12-25T23:08:24.225Z,5.92
2018-12-25T23:10:52.901Z,5.93
2018-12-25T23:13:21.478Z,5.91
2018-12-25T23:15:50.043Z,5.98
2018-12-25T23:18:18.675Z,5.95
2018-12-25T23:20:47.348Z,5.88
2018-12-25T23:23:16.340Z,5.91
2018-12-25T23:25:44.989Z,5.97
2018-12-25T23:28:13.548Z,6.02
2018-12-25T23:30:42.236Z,5.92
2018-12-25T23:33:10.898Z,5.91
2018-12-25T23:35:39.537Z,5.92
2018-12-25T23:38:08.082Z,5.97
2018-12-25T23:40:36.730Z,6.01
2018-12-25T23:43:05.388Z,6.04
2018-12-25T23:45:34.138Z,6.04
2018-12-25T23:48:02.795Z,6.03
2018-12-25T23:50:31.453Z,6.08
2018-12-25T23:53:00.109Z,6.02
2018-12-25T23:55:28.887Z,5.96
2018-12-25T23:57:57.483Z,6.10
